Main page
METAR-TAF:

Airports :

Singapore, Singapore

Paya Lebar Air Base

latitude: 01-22N, longitude: 103-55E, elevation: 18 m

Current weather observation

The report was made 6 hours and 6 minutes ago, at 15:00 UTC
Wind 6 kt from the South
Temperature 28°C
Humidity 84%
Pressure 1010 hPa
Visibility 10 km or more
Few clouds at a height of 1500 ft
Broken clouds at a height of 30000 ft

METAR: WSAP 231500Z 17006KT 9999 FEW015 BKN300 28/25 Q1010

Time: 05:06 (21:06 UTC)

Forecast

The report was made 4 hours and 6 minutes ago, at 17:00 UTC
Forecast valid from 23 at 18 UTC to 24 at 24 UTC
Wind 7 kt from the South
Visibility 10 km or more
Few clouds at a height of 1800 ft, Cumulonimbus.
Scattered clouds at a height of 2000 ft
Temporary
from 24 at 01 UTC to 24 at 05 UTC
Visibility: 3000 m
Few clouds at a height of 1200 ft, Cumulonimbus.
Broken clouds at a height of 1500 ft
thunderstorm, rain

TAF: WSAP 231700Z 2318/2424 18007KT 9999 FEW018CB SCT020 TEMPO 2401/2405 3000 TSRA FEW012CB BKN015

METAR-TAF

Weather observations and forecasts of more than 4000 airports (METAR and TAF reports).

The available stations are represented by yellow and red dots on the map.

Hover mouse over dot to see the name of the station.

Then click to see weather observations and forecasts.

To change the map : click on the green buttons with a black cross to zoom in, on the green button with a dash to zoom out, or on the green arrows for adjacent maps.


METAR-TAF: